sensor_id;sensor_type;location;lat;lon;timestamp;pressure;altitude;pressure_sealevel;temperature;humidity
29359;BME280;16347;53.232;6.556;2023-02-22T00:00:42;101563.19;;;11.55;73.61
29359;BME280;16347;53.232;6.556;2023-02-22T00:03:13;101564.75;;;11.48;74.26
29359;BME280;16347;53.232;6.556;2023-02-22T00:05:43;101561.19;;;11.38;74.55
29359;BME280;16347;53.232;6.556;2023-02-22T00:08:13;101558.75;;;11.44;74.60
29359;BME280;16347;53.232;6.556;2023-02-22T00:10:41;101561.56;;;11.52;74.49
29359;BME280;16347;53.232;6.556;2023-02-22T00:13:12;101562.72;;;11.59;74.71
29359;BME280;16347;53.232;6.556;2023-02-22T00:15:40;101554.28;;;11.53;74.45
29359;BME280;16347;53.232;6.556;2023-02-22T00:18:09;101553.09;;;11.55;74.17
29359;BME280;16347;53.232;6.556;2023-02-22T00:20:39;101555.47;;;11.41;74.23
29359;BME280;16347;53.232;6.556;2023-02-22T00:23:11;101553.59;;;11.41;74.62
29359;BME280;16347;53.232;6.556;2023-02-22T00:25:39;101551.91;;;11.30;74.96
29359;BME280;16347;53.232;6.556;2023-02-22T00:28:07;101547.03;;;11.34;74.81
29359;BME280;16347;53.232;6.556;2023-02-22T00:30:37;101546.56;;;11.39;74.92
29359;BME280;16347;53.232;6.556;2023-02-22T00:33:05;101546.72;;;11.37;74.60
29359;BME280;16347;53.232;6.556;2023-02-22T00:35:33;101545.00;;;11.36;74.77
29359;BME280;16347;53.232;6.556;2023-02-22T00:38:01;101543.69;;;11.50;73.96
29359;BME280;16347;53.232;6.556;2023-02-22T00:40:31;101534.66;;;11.49;74.13
29359;BME280;16347;53.232;6.556;2023-02-22T00:43:02;101539.78;;;11.52;74.18
29359;BME280;16347;53.232;6.556;2023-02-22T00:45:32;101537.84;;;11.45;74.53
29359;BME280;16347;53.232;6.556;2023-02-22T00:48:03;101537.63;;;11.56;74.04
29359;BME280;16347;53.232;6.556;2023-02-22T00:50:32;101529.06;;;11.51;73.89
29359;BME280;16347;53.232;6.556;2023-02-22T00:53:01;101534.78;;;11.57;74.13
29359;BME280;16347;53.232;6.556;2023-02-22T00:55:33;101530.50;;;11.45;73.87
29359;BME280;16347;53.232;6.556;2023-02-22T00:58:01;101531.53;;;11.44;74.17
29359;BME280;16347;53.232;6.556;2023-02-22T01:00:32;101534.69;;;11.40;74.29
29359;BME280;16347;53.232;6.556;2023-02-22T01:03:03;101536.09;;;11.44;73.95
29359;BME280;16347;53.232;6.556;2023-02-22T01:05:34;101527.94;;;11.44;73.79
29359;BME280;16347;53.232;6.556;2023-02-22T01:08:04;101527.22;;;11.42;74.03
29359;BME280;16347;53.232;6.556;2023-02-22T01:10:33;101523.69;;;11.22;73.90
29359;BME280;16347;53.232;6.556;2023-02-22T01:13:02;101512.50;;;11.35;74.26
29359;BME280;16347;53.232;6.556;2023-02-22T01:15:36;101513.06;;;11.28;74.45
29359;BME280;16347;53.232;6.556;2023-02-22T01:18:06;101504.88;;;11.38;74.48
29359;BME280;16347;53.232;6.556;2023-02-22T01:20:34;101505.41;;;11.42;74.59
29359;BME280;16347;53.232;6.556;2023-02-22T01:23:04;101502.81;;;11.50;74.15
29359;BME280;16347;53.232;6.556;2023-02-22T01:25:34;101497.63;;;11.56;74.13
29359;BME280;16347;53.232;6.556;2023-02-22T01:28:04;101500.66;;;11.53;73.47
29359;BME280;16347;53.232;6.556;2023-02-22T01:30:34;101496.19;;;11.62;73.33
29359;BME280;16347;53.232;6.556;2023-02-22T01:33:05;101499.63;;;11.64;73.19
29359;BME280;16347;53.232;6.556;2023-02-22T01:35:36;101493.34;;;11.54;72.93
29359;BME280;16347;53.232;6.556;2023-02-22T01:38:07;101486.91;;;11.55;72.87
29359;BME280;16347;53.232;6.556;2023-02-22T01:40:38;101483.94;;;11.48;72.82
29359;BME280;16347;53.232;6.556;2023-02-22T01:43:16;101484.59;;;11.60;73.32
29359;BME280;16347;53.232;6.556;2023-02-22T01:45:56;101481.00;;;11.59;72.76
29359;BME280;16347;53.232;6.556;2023-02-22T01:48:30;101488.72;;;11.64;72.46
29359;BME280;16347;53.232;6.556;2023-02-22T01:51:09;101485.28;;;11.71;72.17
29359;BME280;16347;53.232;6.556;2023-02-22T01:53:43;101481.84;;;11.60;71.67
29359;BME280;16347;53.232;6.556;2023-02-22T01:56:12;101484.44;;;11.61;71.45
29359;BME280;16347;53.232;6.556;2023-02-22T01:58:46;101485.31;;;11.52;71.54
29359;BME280;16347;53.232;6.556;2023-02-22T02:01:17;101481.09;;;11.40;71.94
29359;BME280;16347;53.232;6.556;2023-02-22T02:03:46;101488.69;;;11.37;71.98
29359;BME280;16347;53.232;6.556;2023-02-22T02:06:17;101486.22;;;11.43;71.88
29359;BME280;16347;53.232;6.556;2023-02-22T02:08:50;101489.09;;;11.42;71.62
29359;BME280;16347;53.232;6.556;2023-02-22T02:11:22;101485.97;;;11.37;71.08
29359;BME280;16347;53.232;6.556;2023-02-22T02:13:54;101481.59;;;11.16;71.61
29359;BME280;16347;53.232;6.556;2023-02-22T02:16:23;101476.28;;;11.15;71.74
29359;BME280;16347;53.232;6.556;2023-02-22T02:18:53;101477.00;;;11.17;71.72
29359;BME280;16347;53.232;6.556;2023-02-22T02:21:39;101475.72;;;11.21;71.95
29359;BME280;16347;53.232;6.556;2023-02-22T02:24:48;101475.50;;;11.32;72.14
29359;BME280;16347;53.232;6.556;2023-02-22T02:27:20;101471.34;;;11.38;71.63
29359;BME280;16347;53.232;6.556;2023-02-22T02:33:15;101472.31;;;11.46;71.42
29359;BME280;16347;53.232;6.556;2023-02-22T02:35:50;101467.44;;;11.50;71.10
29359;BME280;16347;53.232;6.556;2023-02-22T02:38:31;101457.00;;;11.36;70.85
29359;BME280;16347;53.232;6.556;2023-02-22T02:41:06;101454.53;;;11.42;70.83
29359;BME280;16347;53.232;6.556;2023-02-22T02:43:41;101458.31;;;11.31;71.26
29359;BME280;16347;53.232;6.556;2023-02-22T02:46:14;101447.41;;;11.31;71.29
29359;BME280;16347;53.232;6.556;2023-02-22T02:48:48;101454.28;;;11.36;71.66
29359;BME280;16347;53.232;6.556;2023-02-22T02:51:24;101450.25;;;11.40;71.57
29359;BME280;16347;53.232;6.556;2023-02-22T02:53:54;101447.81;;;11.46;70.99
29359;BME280;16347;53.232;6.556;2023-02-22T02:56:23;101444.53;;;11.43;71.18
29359;BME280;16347;53.232;6.556;2023-02-22T02:58:52;101442.06;;;11.49;70.96
29359;BME280;16347;53.232;6.556;2023-02-22T03:01:44;101435.06;;;11.47;71.03
29359;BME280;16347;53.232;6.556;2023-02-22T03:04:33;101436.16;;;11.54;71.17
29359;BME280;16347;53.232;6.556;2023-02-22T03:07:16;101436.31;;;11.52;71.18
29359;BME280;16347;53.232;6.556;2023-02-22T03:09:54;101426.69;;;11.58;71.19
29359;BME280;16347;53.232;6.556;2023-02-22T03:12:33;101425.78;;;11.67;70.87
29359;BME280;16347;53.232;6.556;2023-02-22T03:15:12;101421.88;;;11.69;70.69
29359;BME280;16347;53.232;6.556;2023-02-22T03:17:47;101419.06;;;11.71;70.87
29359;BME280;16347;53.232;6.556;2023-02-22T03:20:23;101408.53;;;11.76;70.59
29359;BME280;16347;53.232;6.556;2023-02-22T03:23:03;101417.44;;;11.68;69.82
29359;BME280;16347;53.232;6.556;2023-02-22T03:25:40;101405.25;;;11.72;70.06
29359;BME280;16347;53.232;6.556;2023-02-22T03:28:12;101401.66;;;11.81;69.76
29359;BME280;16347;53.232;6.556;2023-02-22T03:30:43;101408.53;;;11.76;69.78
29359;BME280;16347;53.232;6.556;2023-02-22T03:33:16;101401.91;;;11.78;69.66
29359;BME280;16347;53.232;6.556;2023-02-22T03:35:53;101397.88;;;11.82;69.79
29359;BME280;16347;53.232;6.556;2023-02-22T03:38:26;101395.47;;;11.79;69.58
29359;BME280;16347;53.232;6.556;2023-02-22T03:40:58;101396.19;;;11.81;69.91
29359;BME280;16347;53.232;6.556;2023-02-22T03:43:30;101396.19;;;11.81;69.55
29359;BME280;16347;53.232;6.556;2023-02-22T03:46:03;101400.38;;;11.76;69.79
29359;BME280;16347;53.232;6.556;2023-02-22T03:48:37;101394.91;;;11.76;69.69
29359;BME280;16347;53.232;6.556;2023-02-22T03:51:08;101393.91;;;11.77;69.94
29359;BME280;16347;53.232;6.556;2023-02-22T03:53:37;101403.66;;;11.79;69.38
29359;BME280;16347;53.232;6.556;2023-02-22T03:56:08;101397.25;;;11.71;69.85
29359;BME280;16347;53.232;6.556;2023-02-22T03:58:39;101400.69;;;11.73;70.15
29359;BME280;16347;53.232;6.556;2023-02-22T04:01:11;101392.09;;;11.68;69.96
29359;BME280;16347;53.232;6.556;2023-02-22T04:03:39;101392.91;;;11.68;70.10
29359;BME280;16347;53.232;6.556;2023-02-22T04:06:09;101385.59;;;11.69;70.40
29359;BME280;16347;53.232;6.556;2023-02-22T04:08:38;101390.94;;;11.70;70.01
29359;BME280;16347;53.232;6.556;2023-02-22T04:11:06;101386.75;;;11.76;70.56
29359;BME280;16347;53.232;6.556;2023-02-22T04:13:34;101372.50;;;11.82;69.99
29359;BME280;16347;53.232;6.556;2023-02-22T04:16:02;101377.25;;;11.80;69.92
29359;BME280;16347;53.232;6.556;2023-02-22T04:18:30;101373.53;;;11.81;70.06
29359;BME280;16347;53.232;6.556;2023-02-22T04:20:59;101373.53;;;11.81;69.79
29359;BME280;16347;53.232;6.556;2023-02-22T04:23:34;101364.84;;;11.68;69.71
29359;BME280;16347;53.232;6.556;2023-02-22T04:26:03;101366.97;;;11.74;69.56
29359;BME280;16347;53.232;6.556;2023-02-22T04:28:31;101365.16;;;11.65;70.07
29359;BME280;16347;53.232;6.556;2023-02-22T04:31:12;101364.69;;;11.69;70.09
29359;BME280;16347;53.232;6.556;2023-02-22T04:33:40;101356.78;;;11.76;69.88
29359;BME280;16347;53.232;6.556;2023-02-22T04:36:11;101360.53;;;11.75;70.12
29359;BME280;16347;53.232;6.556;2023-02-22T04:38:43;101358.50;;;11.77;69.69
29359;BME280;16347;53.232;6.556;2023-02-22T04:41:11;101351.19;;;11.77;69.94
29359;BME280;16347;53.232;6.556;2023-02-22T04:43:40;101361.22;;;11.77;69.41
29359;BME280;16347;53.232;6.556;2023-02-22T04:46:17;101356.41;;;11.71;69.63
29359;BME280;16347;53.232;6.556;2023-02-22T04:48:45;101352.19;;;11.76;69.94
29359;BME280;16347;53.232;6.556;2023-02-22T04:51:15;101358.19;;;11.80;69.82
29359;BME280;16347;53.232;6.556;2023-02-22T04:53:55;101345.13;;;11.83;69.74
29359;BME280;16347;53.232;6.556;2023-02-22T04:56:24;101351.13;;;11.87;69.72
29359;BME280;16347;53.232;6.556;2023-02-22T04:58:52;101343.81;;;11.88;69.43
29359;BME280;16347;53.232;6.556;2023-02-22T05:01:20;101354.38;;;11.91;69.29
29359;BME280;16347;53.232;6.556;2023-02-22T05:03:49;101342.75;;;11.89;69.57
29359;BME280;16347;53.232;6.556;2023-02-22T05:06:17;101351.81;;;11.89;69.47
29359;BME280;16347;53.232;6.556;2023-02-22T05:08:45;101349.47;;;11.76;68.93
29359;BME280;16347;53.232;6.556;2023-02-22T05:11:15;101342.84;;;11.79;69.24
29359;BME280;16347;53.232;6.556;2023-02-22T05:13:43;101342.72;;;11.80;69.58
29359;BME280;16347;53.232;6.556;2023-02-22T05:16:12;101353.91;;;11.77;69.28
29359;BME280;16347;53.232;6.556;2023-02-22T05:18:40;101355.91;;;11.75;69.12
29359;BME280;16347;53.232;6.556;2023-02-22T05:21:08;101348.28;;;11.79;69.07
29359;BME280;16347;53.232;6.556;2023-02-22T05:23:36;101346.44;;;11.79;69.22
29359;BME280;16347;53.232;6.556;2023-02-22T05:26:04;101344.31;;;11.73;69.45
29359;BME280;16347;53.232;6.556;2023-02-22T05:28:36;101338.75;;;11.75;69.48
29359;BME280;16347;53.232;6.556;2023-02-22T05:31:04;101344.88;;;11.77;69.54
29359;BME280;16347;53.232;6.556;2023-02-22T05:33:33;101342.16;;;11.77;69.29
29359;BME280;16347;53.232;6.556;2023-02-22T05:36:01;101339.00;;;11.54;69.06
29359;BME280;16347;53.232;6.556;2023-02-22T05:38:29;101346.84;;;11.57;69.14
29359;BME280;16347;53.232;6.556;2023-02-22T05:40:58;101333.28;;;11.48;69.90
29359;BME280;16347;53.232;6.556;2023-02-22T05:43:26;101331.69;;;11.27;69.54
29359;BME280;16347;53.232;6.556;2023-02-22T05:45:56;101324.31;;;11.38;69.34
29359;BME280;16347;53.232;6.556;2023-02-22T05:48:24;101324.31;;;11.38;69.20
29359;BME280;16347;53.232;6.556;2023-02-22T05:50:51;101319.75;;;11.38;68.98
29359;BME280;16347;53.232;6.556;2023-02-22T05:53:20;101312.97;;;11.42;68.44
29359;BME280;16347;53.232;6.556;2023-02-22T05:55:49;101319.25;;;11.43;68.68
29359;BME280;16347;53.232;6.556;2023-02-22T05:58:17;101322.19;;;11.31;68.83
29359;BME280;16347;53.232;6.556;2023-02-22T06:00:45;101322.28;;;11.12;69.62
29359;BME280;16347;53.232;6.556;2023-02-22T06:03:15;101306.84;;;11.13;69.37
29359;BME280;16347;53.232;6.556;2023-02-22T06:05:43;101306.78;;;11.22;69.99
29359;BME280;16347;53.232;6.556;2023-02-22T06:08:11;101303.91;;;11.24;70.04
29359;BME280;16347;53.232;6.556;2023-02-22T06:10:39;101308.88;;;11.28;69.61
29359;BME280;16347;53.232;6.556;2023-02-22T06:13:08;101312.47;;;11.29;69.26
29359;BME280;16347;53.232;6.556;2023-02-22T06:15:36;101317.53;;;11.24;69.30
29359;BME280;16347;53.232;6.556;2023-02-22T06:18:04;101313.53;;;11.18;69.53
29359;BME280;16347;53.232;6.556;2023-02-22T06:20:33;101311.34;;;11.22;69.19
29359;BME280;16347;53.232;6.556;2023-02-22T06:23:01;101301.03;;;11.25;69.15
29359;BME280;16347;53.232;6.556;2023-02-22T06:25:30;101311.31;;;11.31;69.33
29359;BME280;16347;53.232;6.556;2023-02-22T06:27:59;101310.00;;;11.36;68.84
29359;BME280;16347;53.232;6.556;2023-02-22T06:30:28;101300.28;;;11.33;68.40
29359;BME280;16347;53.232;6.556;2023-02-22T06:32:56;101302.00;;;11.34;68.08
29359;BME280;16347;53.232;6.556;2023-02-22T06:35:24;101295.28;;;11.28;68.35
29359;BME280;16347;53.232;6.556;2023-02-22T06:37:54;101296.84;;;11.31;68.25
29359;BME280;16347;53.232;6.556;2023-02-22T06:40:22;101291.34;;;11.41;68.26
29359;BME280;16347;53.232;6.556;2023-02-22T06:42:55;101290.78;;;11.37;67.58
29359;BME280;16347;53.232;6.556;2023-02-22T06:45:23;101290.31;;;11.42;67.43
29359;BME280;16347;53.232;6.556;2023-02-22T06:47:51;101292.56;;;11.28;67.57
29359;BME280;16347;53.232;6.556;2023-02-22T06:50:22;101281.53;;;11.30;67.22
29359;BME280;16347;53.232;6.556;2023-02-22T06:52:51;101287.53;;;11.33;66.99
29359;BME280;16347;53.232;6.556;2023-02-22T06:55:22;101284.63;;;11.35;66.40
29359;BME280;16347;53.232;6.556;2023-02-22T06:57:51;101294.13;;;11.31;66.79
29359;BME280;16347;53.232;6.556;2023-02-22T07:00:21;101286.97;;;11.30;66.60
29359;BME280;16347;53.232;6.556;2023-02-22T07:02:51;101287.34;;;11.35;66.76
29359;BME280;16347;53.232;6.556;2023-02-22T07:05:21;101285.72;;;11.42;66.40
29359;BME280;16347;53.232;6.556;2023-02-22T07:07:52;101285.41;;;11.45;65.75
29359;BME280;16347;53.232;6.556;2023-02-22T07:10:24;101278.63;;;11.31;65.83
29359;BME280;16347;53.232;6.556;2023-02-22T07:12:55;101280.03;;;11.36;65.62
29359;BME280;16347;53.232;6.556;2023-02-22T07:15:25;101278.34;;;11.35;65.58
29359;BME280;16347;53.232;6.556;2023-02-22T07:17:54;101279.50;;;11.32;65.47
29359;BME280;16347;53.232;6.556;2023-02-22T07:20:23;101282.63;;;11.37;65.65
29359;BME280;16347;53.232;6.556;2023-02-22T07:22:51;101281.63;;;11.38;66.15
29359;BME280;16347;53.232;6.556;2023-02-22T07:25:22;101280.28;;;11.42;65.71
29359;BME280;16347;53.232;6.556;2023-02-22T07:27:50;101278.97;;;11.46;65.40
29359;BME280;16347;53.232;6.556;2023-02-22T07:30:21;101284.28;;;11.48;65.22
29359;BME280;16347;53.232;6.556;2023-02-22T07:32:53;101285.97;;;11.49;64.92
29359;BME280;16347;53.232;6.556;2023-02-22T07:35:24;101278.53;;;11.51;65.11
29359;BME280;16347;53.232;6.556;2023-02-22T07:37:53;101287.69;;;11.50;64.96
29359;BME280;16347;53.232;6.556;2023-02-22T07:40:25;101280.22;;;11.52;64.90
29359;BME280;16347;53.232;6.556;2023-02-22T07:42:56;101281.94;;;11.53;64.98
29359;BME280;16347;53.232;6.556;2023-02-22T07:45:26;101272.31;;;11.58;65.03
29359;BME280;16347;53.232;6.556;2023-02-22T07:47:56;101283.78;;;11.52;64.33
29359;BME280;16347;53.232;6.556;2023-02-22T07:50:25;101285.53;;;11.53;63.82
29359;BME280;16347;53.232;6.556;2023-02-22T07:52:55;101278.84;;;11.48;63.78
29359;BME280;16347;53.232;6.556;2023-02-22T07:55:26;101277.81;;;11.49;64.25
29359;BME280;16347;53.232;6.556;2023-02-22T07:57:56;101267.63;;;11.51;63.61
29359;BME280;16347;53.232;6.556;2023-02-22T08:00:26;101275.94;;;11.49;63.81
29359;BME280;16347;53.232;6.556;2023-02-22T08:02:55;101270.13;;;11.44;63.94
29359;BME280;16347;53.232;6.556;2023-02-22T08:05:28;101268.38;;;11.43;63.62
29359;BME280;16347;53.232;6.556;2023-02-22T08:07:57;101263.28;;;11.58;63.31
29359;BME280;16347;53.232;6.556;2023-02-22T08:10:27;101273.97;;;11.42;62.68
29359;BME280;16347;53.232;6.556;2023-02-22T08:12:57;101260.59;;;11.30;63.03
29359;BME280;16347;53.232;6.556;2023-02-22T08:15:27;101257.88;;;11.30;63.55
29359;BME280;16347;53.232;6.556;2023-02-22T08:17:57;101257.03;;;11.30;63.20
29359;BME280;16347;53.232;6.556;2023-02-22T08:20:27;101253.81;;;11.17;62.65
29359;BME280;16347;53.232;6.556;2023-02-22T08:22:56;101250.03;;;11.00;63.57
29359;BME280;16347;53.232;6.556;2023-02-22T08:25:27;101246.91;;;10.95;63.30
29359;BME280;16347;53.232;6.556;2023-02-22T08:27:56;101247.31;;;11.00;63.46
29359;BME280;16347;53.232;6.556;2023-02-22T08:30:28;101252.16;;;11.06;63.61
29359;BME280;16347;53.232;6.556;2023-02-22T08:32:57;101245.53;;;11.09;63.75
29359;BME280;16347;53.232;6.556;2023-02-22T08:35:25;101245.97;;;11.14;63.74
29359;BME280;16347;53.232;6.556;2023-02-22T08:37:57;101256.13;;;11.12;63.76
29359;BME280;16347;53.232;6.556;2023-02-22T08:40:29;101256.97;;;11.12;63.62
29359;BME280;16347;53.232;6.556;2023-02-22T08:42:58;101260.19;;;11.08;63.99
29359;BME280;16347;53.232;6.556;2023-02-22T08:45:27;101256.59;;;11.07;64.15
29359;BME280;16347;53.232;6.556;2023-02-22T08:47:56;101253.69;;;10.91;65.01
29359;BME280;16347;53.232;6.556;2023-02-22T08:50:31;101258.41;;;10.89;65.08
29359;BME280;16347;53.232;6.556;2023-02-22T08:53:02;101249.84;;;10.84;64.59
29359;BME280;16347;53.232;6.556;2023-02-22T08:55:35;101253.41;;;10.85;65.64
29359;BME280;16347;53.232;6.556;2023-02-22T08:58:05;101250.53;;;10.86;65.46
29359;BME280;16347;53.232;6.556;2023-02-22T09:00:35;101239.34;;;10.89;65.03
29359;BME280;16347;53.232;6.556;2023-02-22T09:03:06;101241.38;;;10.87;65.24
29359;BME280;16347;53.232;6.556;2023-02-22T09:05:34;101231.13;;;10.99;65.45
29359;BME280;16347;53.232;6.556;2023-02-22T09:08:04;101238.81;;;10.86;65.36
29359;BME280;16347;53.232;6.556;2023-02-22T09:10:34;101238.00;;;11.03;65.78
29359;BME280;16347;53.232;6.556;2023-02-22T09:13:03;101231.78;;;11.10;66.42
29359;BME280;16347;53.232;6.556;2023-02-22T09:15:33;101234.28;;;11.04;65.87
29359;BME280;16347;53.232;6.556;2023-02-22T09:18:05;101231.41;;;11.23;65.87
29359;BME280;16347;53.232;6.556;2023-02-22T09:20:34;101229.34;;;11.35;65.66
29359;BME280;16347;53.232;6.556;2023-02-22T09:23:03;101228.09;;;11.47;65.33
29359;BME280;16347;53.232;6.556;2023-02-22T09:25:34;101236.63;;;11.52;65.00
29359;BME280;16347;53.232;6.556;2023-02-22T09:28:04;101229.50;;;11.51;65.08
29359;BME280;16347;53.232;6.556;2023-02-22T09:30:34;101221.03;;;11.54;64.93
29359;BME280;16347;53.232;6.556;2023-02-22T09:33:05;101225.28;;;11.56;65.29
29359;BME280;16347;53.232;6.556;2023-02-22T09:35:36;101230.59;;;11.58;64.80
29359;BME280;16347;53.232;6.556;2023-02-22T09:38:09;101230.97;;;11.63;64.67
29359;BME280;16347;53.232;6.556;2023-02-22T09:40:41;101233.69;;;11.63;64.22
29359;BME280;16347;53.232;6.556;2023-02-22T09:43:23;101222.44;;;11.58;63.96
29359;BME280;16347;53.232;6.556;2023-02-22T09:46:09;101221.56;;;11.57;64.17
29359;BME280;16347;53.232;6.556;2023-02-22T09:48:46;101216.13;;;11.57;64.13
29359;BME280;16347;53.232;6.556;2023-02-22T09:51:19;101214.25;;;11.58;63.95
29359;BME280;16347;53.232;6.556;2023-02-22T09:53:54;101202.91;;;11.45;64.25
29359;BME280;16347;53.232;6.556;2023-02-22T09:56:25;101202.41;;;11.31;64.51
29359;BME280;16347;53.232;6.556;2023-02-22T09:58:58;101211.97;;;11.36;64.81
29359;BME280;16347;53.232;6.556;2023-02-22T10:01:32;101218.16;;;11.38;64.43
29359;BME280;16347;53.232;6.556;2023-02-22T10:04:05;101226.13;;;11.39;64.61
29359;BME280;16347;53.232;6.556;2023-02-22T10:06:38;101210.50;;;11.23;64.50
29359;BME280;16347;53.232;6.556;2023-02-22T10:09:09;101219.06;;;11.11;64.95
29359;BME280;16347;53.232;6.556;2023-02-22T10:11:56;101208.22;;;11.19;65.46
29359;BME280;16347;53.232;6.556;2023-02-22T10:14:41;101216.19;;;11.30;65.04
29359;BME280;16347;53.232;6.556;2023-02-22T10:17:20;101216.91;;;11.05;64.66
29359;BME280;16347;53.232;6.556;2023-02-22T10:20:02;101219.75;;;10.86;65.77
29359;BME280;16347;53.232;6.556;2023-02-22T10:22:44;101210.53;;;10.69;66.41
29359;BME280;16347;53.232;6.556;2023-02-22T10:25:22;101218.50;;;10.80;66.36
29359;BME280;16347;53.232;6.556;2023-02-22T10:27:55;101222.47;;;10.86;66.12
29359;BME280;16347;53.232;6.556;2023-02-22T10:30:28;101215.19;;;10.86;66.19
29359;BME280;16347;53.232;6.556;2023-02-22T10:33:04;101215.72;;;10.90;66.24
29359;BME280;16347;53.232;6.556;2023-02-22T10:35:37;101218.69;;;10.96;65.75
29359;BME280;16347;53.232;6.556;2023-02-22T10:38:13;101218.31;;;11.09;65.98
29359;BME280;16347;53.232;6.556;2023-02-22T10:40:47;101217.53;;;10.99;65.07
29359;BME280;16347;53.232;6.556;2023-02-22T10:43:17;101210.22;;;10.99;65.40
29359;BME280;16347;53.232;6.556;2023-02-22T10:45:45;101206.09;;;10.95;65.46
29359;BME280;16347;53.232;6.556;2023-02-22T10:48:15;101205.88;;;11.06;65.13
29359;BME280;16347;53.232;6.556;2023-02-22T10:50:45;101198.09;;;11.11;65.26
29359;BME280;16347;53.232;6.556;2023-02-22T10:53:14;101193.94;;;11.17;64.63
29359;BME280;16347;53.232;6.556;2023-02-22T10:56:05;101191.59;;;11.22;65.18
29359;BME280;16347;53.232;6.556;2023-02-22T10:58:45;101187.72;;;11.24;64.70
29359;BME280;16347;53.232;6.556;2023-02-22T11:01:26;101194.00;;;11.25;64.79
29359;BME280;16347;53.232;6.556;2023-02-22T11:03:59;101183.34;;;11.31;64.87
29359;BME280;16347;53.232;6.556;2023-02-22T11:06:29;101180.16;;;11.36;64.54
29359;BME280;16347;53.232;6.556;2023-02-22T11:09:12;101182.34;;;11.32;65.05
29359;BME280;16347;53.232;6.556;2023-02-22T11:11:43;101192.88;;;11.27;65.11
29359;BME280;16347;53.232;6.556;2023-02-22T11:14:25;101180.41;;;11.43;65.16
29359;BME280;16347;53.232;6.556;2023-02-22T11:16:55;101168.75;;;11.50;65.30
29359;BME280;16347;53.232;6.556;2023-02-22T11:19:26;101152.84;;;11.63;64.47
29359;BME280;16347;53.232;6.556;2023-02-22T11:21:56;101146.47;;;11.72;64.13
29359;BME280;16347;53.232;6.556;2023-02-22T11:24:26;101141.56;;;11.76;63.60
29359;BME280;16347;53.232;6.556;2023-02-22T11:27:05;101144.59;;;11.73;63.79
29359;BME280;16347;53.232;6.556;2023-02-22T11:29:36;101148.41;;;11.80;63.65
29359;BME280;16347;53.232;6.556;2023-02-22T11:32:12;101143.84;;;11.89;63.14
29359;BME280;16347;53.232;6.556;2023-02-22T11:34:41;101148.84;;;11.93;62.82
29359;BME280;16347;53.232;6.556;2023-02-22T11:37:33;101153.31;;;12.02;62.77
29359;BME280;16347;53.232;6.556;2023-02-22T11:40:06;101149.97;;;12.08;62.66
29359;BME280;16347;53.232;6.556;2023-02-22T11:42:38;101149.00;;;12.17;62.44
29359;BME280;16347;53.232;6.556;2023-02-22T11:45:11;101141.34;;;12.21;61.77
29359;BME280;16347;53.232;6.556;2023-02-22T11:47:49;101141.63;;;12.10;62.44
29359;BME280;16347;53.232;6.556;2023-02-22T11:50:27;101138.00;;;12.01;62.95
29359;BME280;16347;53.232;6.556;2023-02-22T11:53:22;101136.59;;;11.97;63.46
29359;BME280;16347;53.232;6.556;2023-02-22T11:56:12;101131.47;;;11.94;63.40
29359;BME280;16347;53.232;6.556;2023-02-22T11:58:53;101121.75;;;11.92;64.01
29359;BME280;16347;53.232;6.556;2023-02-22T12:01:35;101119.72;;;11.94;64.21
29359;BME280;16347;53.232;6.556;2023-02-22T12:04:36;101117.84;;;11.94;64.33
29359;BME280;16347;53.232;6.556;2023-02-22T12:07:19;101116.88;;;12.03;64.21
29359;BME280;16347;53.232;6.556;2023-02-22T12:09:57;101110.34;;;11.88;64.33
29359;BME280;16347;53.232;6.556;2023-02-22T12:12:39;101106.16;;;12.02;64.93
29359;BME280;16347;53.232;6.556;2023-02-22T12:15:16;101099.00;;;12.01;65.16
29359;BME280;16347;53.232;6.556;2023-02-22T12:17:58;101087.81;;;12.12;64.79
29359;BME280;16347;53.232;6.556;2023-02-22T12:20:33;101091.41;;;12.20;64.62
29359;BME280;16347;53.232;6.556;2023-02-22T12:23:14;101089.75;;;12.27;64.78
29359;BME280;16347;53.232;6.556;2023-02-22T12:25:54;101079.72;;;12.28;65.21
29359;BME280;16347;53.232;6.556;2023-02-22T12:28:31;101083.09;;;12.30;65.05
29359;BME280;16347;53.232;6.556;2023-02-22T12:31:09;101090.97;;;12.33;65.74
29359;BME280;16347;53.232;6.556;2023-02-22T12:33:48;101090.81;;;12.43;65.75
29359;BME280;16347;53.232;6.556;2023-02-22T12:36:23;101088.81;;;12.53;65.70
29359;BME280;16347;53.232;6.556;2023-02-22T12:38:56;101092.91;;;12.57;65.30
29359;BME280;16347;53.232;6.556;2023-02-22T12:41:32;101087.97;;;12.52;64.24
29359;BME280;16347;53.232;6.556;2023-02-22T12:44:07;101088.75;;;12.28;64.67
29359;BME280;16347;53.232;6.556;2023-02-22T12:46:40;101096.06;;;12.28;65.38
29359;BME280;16347;53.232;6.556;2023-02-22T12:49:14;101097.31;;;12.42;65.19
29359;BME280;16347;53.232;6.556;2023-02-22T12:51:55;101100.25;;;12.48;64.87
29359;BME280;16347;53.232;6.556;2023-02-22T12:54:40;101105.84;;;12.47;64.29
29359;BME280;16347;53.232;6.556;2023-02-22T12:57:15;101116.81;;;12.21;64.08
29359;BME280;16347;53.232;6.556;2023-02-22T12:59:48;101114.88;;;12.05;64.61
29359;BME280;16347;53.232;6.556;2023-02-22T13:02:21;101121.81;;;11.56;65.46
29359;BME280;16347;53.232;6.556;2023-02-22T13:04:55;101127.31;;;11.64;65.77
29359;BME280;16347;53.232;6.556;2023-02-22T13:07:34;101112.19;;;11.44;67.00
29359;BME280;16347;53.232;6.556;2023-02-22T13:10:29;101109.19;;;11.73;66.63
29359;BME280;16347;53.232;6.556;2023-02-22T13:13:07;101101.44;;;11.86;66.75
29359;BME280;16347;53.232;6.556;2023-02-22T13:15:46;101102.06;;;12.06;65.93
29359;BME280;16347;53.232;6.556;2023-02-22T13:18:18;101103.31;;;12.11;65.93
29359;BME280;16347;53.232;6.556;2023-02-22T13:20:52;101097.53;;;12.22;65.48